sensor_id;sensor_type;location;lat;lon;timestamp;temperature;humidity
16879;DHT22;8556;52.218;9.884;2022-11-15T00:01:57;7.20;99.90
16879;DHT22;8556;52.218;9.884;2022-11-15T00:04:24;7.30;99.90
16879;DHT22;8556;52.218;9.884;2022-11-15T00:06:50;7.20;99.90
16879;DHT22;8556;52.218;9.884;2022-11-15T00:09:17;7.50;99.90
16879;DHT22;8556;52.218;9.884;2022-11-15T00:11:45;7.40;99.90
16879;DHT22;8556;52.218;9.884;2022-11-15T00:14:12;7.40;99.90
16879;DHT22;8556;52.218;9.884;2022-11-15T00:16:39;7.40;99.90
16879;DHT22;8556;52.218;9.884;2022-11-15T00:19:06;7.40;99.90
16879;DHT22;8556;52.218;9.884;2022-11-15T00:21:32;7.50;99.90
16879;DHT22;8556;52.218;9.884;2022-11-15T00:23:59;7.50;99.90
16879;DHT22;8556;52.218;9.884;2022-11-15T00:26:26;7.50;99.90
16879;DHT22;8556;52.218;9.884;2022-11-15T00:28:54;7.60;99.90
16879;DHT22;8556;52.218;9.884;2022-11-15T00:31:21;7.50;99.90
16879;DHT22;8556;52.218;9.884;2022-11-15T00:33:48;7.50;99.90
16879;DHT22;8556;52.218;9.884;2022-11-15T00:36:14;7.60;99.90
16879;DHT22;8556;52.218;9.884;2022-11-15T00:38:41;7.60;99.90
16879;DHT22;8556;52.218;9.884;2022-11-15T00:41:08;7.70;99.90
16879;DHT22;8556;52.218;9.884;2022-11-15T00:43:35;7.80;99.90
16879;DHT22;8556;52.218;9.884;2022-11-15T00:46:04;7.70;99.90
16879;DHT22;8556;52.218;9.884;2022-11-15T00:48:30;8.00;99.90
16879;DHT22;8556;52.218;9.884;2022-11-15T00:50:57;7.90;99.90
16879;DHT22;8556;52.218;9.884;2022-11-15T00:53:24;7.90;99.90
16879;DHT22;8556;52.218;9.884;2022-11-15T00:55:51;8.40;99.90
16879;DHT22;8556;52.218;9.884;2022-11-15T00:58:18;8.40;99.90
16879;DHT22;8556;52.218;9.884;2022-11-15T01:00:45;8.40;99.90
16879;DHT22;8556;52.218;9.884;2022-11-15T01:03:13;8.90;99.90
16879;DHT22;8556;52.218;9.884;2022-11-15T01:05:40;8.80;99.90
16879;DHT22;8556;52.218;9.884;2022-11-15T01:08:12;9.00;99.90
16879;DHT22;8556;52.218;9.884;2022-11-15T01:10:39;9.20;99.90
16879;DHT22;8556;52.218;9.884;2022-11-15T01:13:05;9.50;99.90
16879;DHT22;8556;52.218;9.884;2022-11-15T01:15:32;9.40;99.90
16879;DHT22;8556;52.218;9.884;2022-11-15T01:17:59;9.50;99.90
16879;DHT22;8556;52.218;9.884;2022-11-15T01:20:27;9.60;99.90
16879;DHT22;8556;52.218;9.884;2022-11-15T01:22:54;9.70;99.90
16879;DHT22;8556;52.218;9.884;2022-11-15T01:25:21;9.80;99.90
16879;DHT22;8556;52.218;9.884;2022-11-15T01:27:48;9.70;99.90
16879;DHT22;8556;52.218;9.884;2022-11-15T01:30:15;10.00;99.90
16879;DHT22;8556;52.218;9.884;2022-11-15T01:32:41;10.20;99.90
16879;DHT22;8556;52.218;9.884;2022-11-15T01:35:08;10.10;99.90
16879;DHT22;8556;52.218;9.884;2022-11-15T01:37:36;10.10;99.90
16879;DHT22;8556;52.218;9.884;2022-11-15T01:40:04;10.20;99.90
16879;DHT22;8556;52.218;9.884;2022-11-15T01:42:31;10.10;99.90
16879;DHT22;8556;52.218;9.884;2022-11-15T01:44:58;10.10;99.90
16879;DHT22;8556;52.218;9.884;2022-11-15T01:47:27;10.30;99.90
16879;DHT22;8556;52.218;9.884;2022-11-15T01:49:57;9.90;99.90
16879;DHT22;8556;52.218;9.884;2022-11-15T01:52:28;9.90;99.90
16879;DHT22;8556;52.218;9.884;2022-11-15T01:55:02;10.10;99.90
16879;DHT22;8556;52.218;9.884;2022-11-15T01:57:30;10.10;99.90
16879;DHT22;8556;52.218;9.884;2022-11-15T01:59:57;10.20;99.90
16879;DHT22;8556;52.218;9.884;2022-11-15T02:02:24;10.30;99.90
16879;DHT22;8556;52.218;9.884;2022-11-15T02:04:52;10.70;99.90
16879;DHT22;8556;52.218;9.884;2022-11-15T02:07:20;10.80;99.90
16879;DHT22;8556;52.218;9.884;2022-11-15T02:09:48;10.70;99.90
16879;DHT22;8556;52.218;9.884;2022-11-15T02:12:19;11.00;99.90
16879;DHT22;8556;52.218;9.884;2022-11-15T02:14:49;10.90;99.90
16879;DHT22;8556;52.218;9.884;2022-11-15T02:17:38;11.10;99.90
16879;DHT22;8556;52.218;9.884;2022-11-15T02:20:39;10.70;99.90
16879;DHT22;8556;52.218;9.884;2022-11-15T02:23:31;10.90;99.90
16879;DHT22;8556;52.218;9.884;2022-11-15T02:26:19;11.00;99.90
16879;DHT22;8556;52.218;9.884;2022-11-15T02:28:58;11.10;99.90
16879;DHT22;8556;52.218;9.884;2022-11-15T02:31:34;10.90;99.90
16879;DHT22;8556;52.218;9.884;2022-11-15T02:34:11;11.10;99.90
16879;DHT22;8556;52.218;9.884;2022-11-15T02:36:49;11.10;99.90
16879;DHT22;8556;52.218;9.884;2022-11-15T02:39:26;11.00;99.90
16879;DHT22;8556;52.218;9.884;2022-11-15T02:41:57;10.80;99.90
16879;DHT22;8556;52.218;9.884;2022-11-15T02:44:30;10.80;99.90
16879;DHT22;8556;52.218;9.884;2022-11-15T02:47:00;10.80;99.90
16879;DHT22;8556;52.218;9.884;2022-11-15T02:49:42;11.20;99.90
16879;DHT22;8556;52.218;9.884;2022-11-15T02:52:14;11.30;99.90
16879;DHT22;8556;52.218;9.884;2022-11-15T02:54:42;11.30;99.90
16879;DHT22;8556;52.218;9.884;2022-11-15T02:57:14;11.40;99.90
16879;DHT22;8556;52.218;9.884;2022-11-15T03:00:01;11.30;99.90
16879;DHT22;8556;52.218;9.884;2022-11-15T03:02:49;11.20;99.90
16879;DHT22;8556;52.218;9.884;2022-11-15T03:05:22;11.30;99.90
16879;DHT22;8556;52.218;9.884;2022-11-15T03:07:54;11.20;99.90
16879;DHT22;8556;52.218;9.884;2022-11-15T03:10:29;11.10;99.90
16879;DHT22;8556;52.218;9.884;2022-11-15T03:13:00;11.20;99.90
16879;DHT22;8556;52.218;9.884;2022-11-15T03:15:34;11.30;99.90
16879;DHT22;8556;52.218;9.884;2022-11-15T03:18:10;11.20;99.90
16879;DHT22;8556;52.218;9.884;2022-11-15T03:20:39;11.40;99.90
16879;DHT22;8556;52.218;9.884;2022-11-15T03:23:08;11.30;99.90
16879;DHT22;8556;52.218;9.884;2022-11-15T03:25:40;11.30;99.90
16879;DHT22;8556;52.218;9.884;2022-11-15T03:28:10;11.30;99.90
16879;DHT22;8556;52.218;9.884;2022-11-15T03:30:39;11.20;99.90
16879;DHT22;8556;52.218;9.884;2022-11-15T03:33:08;11.30;99.90
16879;DHT22;8556;52.218;9.884;2022-11-15T03:35:40;11.30;99.90
16879;DHT22;8556;52.218;9.884;2022-11-15T03:38:14;11.00;99.90
16879;DHT22;8556;52.218;9.884;2022-11-15T03:40:44;10.90;99.90
16879;DHT22;8556;52.218;9.884;2022-11-15T03:43:16;11.10;99.90
16879;DHT22;8556;52.218;9.884;2022-11-15T03:45:50;10.90;99.90
16879;DHT22;8556;52.218;9.884;2022-11-15T03:48:22;10.60;99.90
16879;DHT22;8556;52.218;9.884;2022-11-15T03:50:51;10.40;99.90
16879;DHT22;8556;52.218;9.884;2022-11-15T03:53:17;10.30;99.90
16879;DHT22;8556;52.218;9.884;2022-11-15T03:55:44;10.10;99.90
16879;DHT22;8556;52.218;9.884;2022-11-15T03:58:11;9.90;99.90
16879;DHT22;8556;52.218;9.884;2022-11-15T04:00:38;9.80;99.90
16879;DHT22;8556;52.218;9.884;2022-11-15T04:03:05;9.90;99.90
16879;DHT22;8556;52.218;9.884;2022-11-15T04:05:34;9.50;99.90
16879;DHT22;8556;52.218;9.884;2022-11-15T04:08:01;9.40;99.90
16879;DHT22;8556;52.218;9.884;2022-11-15T04:10:27;9.50;99.90
16879;DHT22;8556;52.218;9.884;2022-11-15T04:12:54;9.40;99.90
16879;DHT22;8556;52.218;9.884;2022-11-15T04:15:23;9.40;99.90
16879;DHT22;8556;52.218;9.884;2022-11-15T04:17:51;9.60;99.90
16879;DHT22;8556;52.218;9.884;2022-11-15T04:20:21;9.50;99.90
16879;DHT22;8556;52.218;9.884;2022-11-15T04:23:09;9.40;99.90
16879;DHT22;8556;52.218;9.884;2022-11-15T04:25:55;9.30;99.90
16879;DHT22;8556;52.218;9.884;2022-11-15T04:28:22;9.10;99.90
16879;DHT22;8556;52.218;9.884;2022-11-15T04:30:50;9.10;99.90
16879;DHT22;8556;52.218;9.884;2022-11-15T04:33:17;9.10;99.90
16879;DHT22;8556;52.218;9.884;2022-11-15T04:35:44;9.00;99.90
16879;DHT22;8556;52.218;9.884;2022-11-15T04:38:33;9.00;99.90
16879;DHT22;8556;52.218;9.884;2022-11-15T04:40:59;9.00;99.90
16879;DHT22;8556;52.218;9.884;2022-11-15T04:43:25;8.90;99.90
16879;DHT22;8556;52.218;9.884;2022-11-15T04:45:52;8.80;99.90
16879;DHT22;8556;52.218;9.884;2022-11-15T04:48:19;8.80;99.90
16879;DHT22;8556;52.218;9.884;2022-11-15T04:50:47;8.80;99.90
16879;DHT22;8556;52.218;9.884;2022-11-15T04:53:14;8.70;99.90
16879;DHT22;8556;52.218;9.884;2022-11-15T04:55:45;8.70;99.90
16879;DHT22;8556;52.218;9.884;2022-11-15T04:58:12;8.90;99.90
16879;DHT22;8556;52.218;9.884;2022-11-15T05:00:39;9.30;99.90
16879;DHT22;8556;52.218;9.884;2022-11-15T05:03:06;9.20;99.90
16879;DHT22;8556;52.218;9.884;2022-11-15T05:05:50;9.10;99.90
16879;DHT22;8556;52.218;9.884;2022-11-15T05:08:17;9.10;99.90
16879;DHT22;8556;52.218;9.884;2022-11-15T05:10:45;9.10;99.90
16879;DHT22;8556;52.218;9.884;2022-11-15T05:13:12;9.10;99.90
16879;DHT22;8556;52.218;9.884;2022-11-15T05:15:39;9.00;99.90
16879;DHT22;8556;52.218;9.884;2022-11-15T05:18:06;9.00;99.90
16879;DHT22;8556;52.218;9.884;2022-11-15T05:20:32;9.00;99.90
16879;DHT22;8556;52.218;9.884;2022-11-15T05:22:59;9.00;99.90
16879;DHT22;8556;52.218;9.884;2022-11-15T05:25:26;9.10;99.90
16879;DHT22;8556;52.218;9.884;2022-11-15T05:27:55;9.50;99.90
16879;DHT22;8556;52.218;9.884;2022-11-15T05:30:21;9.40;99.90
16879;DHT22;8556;52.218;9.884;2022-11-15T05:32:48;9.40;99.90
16879;DHT22;8556;52.218;9.884;2022-11-15T05:35:19;9.20;99.90
16879;DHT22;8556;52.218;9.884;2022-11-15T05:37:48;9.20;99.90
16879;DHT22;8556;52.218;9.884;2022-11-15T05:40:15;9.30;99.90
16879;DHT22;8556;52.218;9.884;2022-11-15T05:42:42;9.30;99.90
16879;DHT22;8556;52.218;9.884;2022-11-15T05:45:11;9.30;99.90
16879;DHT22;8556;52.218;9.884;2022-11-15T05:47:39;9.60;99.90
16879;DHT22;8556;52.218;9.884;2022-11-15T05:50:07;9.70;99.90
16879;DHT22;8556;52.218;9.884;2022-11-15T05:52:36;9.50;99.90
16879;DHT22;8556;52.218;9.884;2022-11-15T05:55:05;9.20;99.90
16879;DHT22;8556;52.218;9.884;2022-11-15T05:57:33;9.20;99.90
16879;DHT22;8556;52.218;9.884;2022-11-15T06:00:00;8.80;99.90
16879;DHT22;8556;52.218;9.884;2022-11-15T06:02:28;8.60;99.90
16879;DHT22;8556;52.218;9.884;2022-11-15T06:04:55;8.60;99.90
16879;DHT22;8556;52.218;9.884;2022-11-15T06:07:22;8.50;99.90
16879;DHT22;8556;52.218;9.884;2022-11-15T06:09:48;8.40;99.90
16879;DHT22;8556;52.218;9.884;2022-11-15T06:12:15;8.50;99.90
16879;DHT22;8556;52.218;9.884;2022-11-15T06:14:42;8.30;99.90
16879;DHT22;8556;52.218;9.884;2022-11-15T06:17:09;8.20;99.90
16879;DHT22;8556;52.218;9.884;2022-11-15T06:19:37;8.10;99.90
16879;DHT22;8556;52.218;9.884;2022-11-15T06:22:04;8.10;99.90
16879;DHT22;8556;52.218;9.884;2022-11-15T06:24:30;8.10;99.90
16879;DHT22;8556;52.218;9.884;2022-11-15T06:26:57;8.20;99.90
16879;DHT22;8556;52.218;9.884;2022-11-15T06:29:24;8.10;99.90
16879;DHT22;8556;52.218;9.884;2022-11-15T06:31:51;8.30;99.90
16879;DHT22;8556;52.218;9.884;2022-11-15T06:34:18;8.60;99.90
16879;DHT22;8556;52.218;9.884;2022-11-15T06:36:46;8.60;99.90
16879;DHT22;8556;52.218;9.884;2022-11-15T06:39:12;9.10;99.90
16879;DHT22;8556;52.218;9.884;2022-11-15T06:41:39;9.00;99.90
16879;DHT22;8556;52.218;9.884;2022-11-15T06:44:06;9.00;99.90
16879;DHT22;8556;52.218;9.884;2022-11-15T06:46:33;9.00;99.90
16879;DHT22;8556;52.218;9.884;2022-11-15T06:49:00;9.20;99.90
16879;DHT22;8556;52.218;9.884;2022-11-15T06:51:26;9.20;99.90
16879;DHT22;8556;52.218;9.884;2022-11-15T06:53:54;9.10;99.90
16879;DHT22;8556;52.218;9.884;2022-11-15T06:56:21;9.20;99.90
16879;DHT22;8556;52.218;9.884;2022-11-15T06:58:48;9.50;99.90
16879;DHT22;8556;52.218;9.884;2022-11-15T07:01:15;9.60;99.90
16879;DHT22;8556;52.218;9.884;2022-11-15T07:03:42;9.40;99.90
16879;DHT22;8556;52.218;9.884;2022-11-15T07:06:09;9.50;99.90
16879;DHT22;8556;52.218;9.884;2022-11-15T07:08:36;9.40;99.90
16879;DHT22;8556;52.218;9.884;2022-11-15T07:11:06;9.40;99.90
16879;DHT22;8556;52.218;9.884;2022-11-15T07:13:34;9.30;99.90
16879;DHT22;8556;52.218;9.884;2022-11-15T07:16:02;9.30;99.90
16879;DHT22;8556;52.218;9.884;2022-11-15T07:18:29;9.20;99.90
16879;DHT22;8556;52.218;9.884;2022-11-15T07:21:00;9.30;99.90
16879;DHT22;8556;52.218;9.884;2022-11-15T07:23:27;9.40;99.90
16879;DHT22;8556;52.218;9.884;2022-11-15T07:25:55;9.40;99.90
16879;DHT22;8556;52.218;9.884;2022-11-15T07:28:23;9.30;99.90
16879;DHT22;8556;52.218;9.884;2022-11-15T07:30:50;9.20;99.90
16879;DHT22;8556;52.218;9.884;2022-11-15T07:33:17;9.40;99.90
16879;DHT22;8556;52.218;9.884;2022-11-15T07:35:44;9.30;99.90
16879;DHT22;8556;52.218;9.884;2022-11-15T07:38:14;9.40;99.90
16879;DHT22;8556;52.218;9.884;2022-11-15T07:40:41;9.50;99.90
16879;DHT22;8556;52.218;9.884;2022-11-15T07:43:08;9.70;99.90
16879;DHT22;8556;52.218;9.884;2022-11-15T07:45:42;9.50;99.90
16879;DHT22;8556;52.218;9.884;2022-11-15T07:48:09;9.50;99.90
16879;DHT22;8556;52.218;9.884;2022-11-15T07:50:36;9.70;99.90
16879;DHT22;8556;52.218;9.884;2022-11-15T07:53:03;9.70;99.90
16879;DHT22;8556;52.218;9.884;2022-11-15T07:55:29;9.60;99.90
16879;DHT22;8556;52.218;9.884;2022-11-15T07:58:00;9.50;99.90
16879;DHT22;8556;52.218;9.884;2022-11-15T08:00:27;9.40;99.90
16879;DHT22;8556;52.218;9.884;2022-11-15T08:03:03;9.40;99.90
16879;DHT22;8556;52.218;9.884;2022-11-15T08:05:30;9.30;99.90
16879;DHT22;8556;52.218;9.884;2022-11-15T08:07:57;9.30;99.90
16879;DHT22;8556;52.218;9.884;2022-11-15T08:10:24;9.30;99.90
16879;DHT22;8556;52.218;9.884;2022-11-15T08:12:57;9.20;99.90
16879;DHT22;8556;52.218;9.884;2022-11-15T08:15:25;9.10;99.90
16879;DHT22;8556;52.218;9.884;2022-11-15T08:17:54;9.50;99.90
16879;DHT22;8556;52.218;9.884;2022-11-15T08:20:22;9.60;99.90
16879;DHT22;8556;52.218;9.884;2022-11-15T08:22:49;9.90;99.90
16879;DHT22;8556;52.218;9.884;2022-11-15T08:25:16;9.90;99.90
16879;DHT22;8556;52.218;9.884;2022-11-15T08:27:43;9.90;99.90
16879;DHT22;8556;52.218;9.884;2022-11-15T08:30:11;10.30;99.90
16879;DHT22;8556;52.218;9.884;2022-11-15T08:32:39;10.20;99.90
16879;DHT22;8556;52.218;9.884;2022-11-15T08:35:06;10.50;99.90
16879;DHT22;8556;52.218;9.884;2022-11-15T08:37:35;10.60;99.90
16879;DHT22;8556;52.218;9.884;2022-11-15T08:40:02;10.90;99.90
16879;DHT22;8556;52.218;9.884;2022-11-15T08:42:29;11.00;99.90
16879;DHT22;8556;52.218;9.884;2022-11-15T08:44:56;11.00;99.90
16879;DHT22;8556;52.218;9.884;2022-11-15T08:47:23;11.00;99.90
16879;DHT22;8556;52.218;9.884;2022-11-15T08:49:50;11.30;99.90
16879;DHT22;8556;52.218;9.884;2022-11-15T08:52:17;11.20;99.90
16879;DHT22;8556;52.218;9.884;2022-11-15T08:54:45;11.10;99.90
16879;DHT22;8556;52.218;9.884;2022-11-15T08:57:12;11.30;99.90
16879;DHT22;8556;52.218;9.884;2022-11-15T08:59:39;12.00;99.90
16879;DHT22;8556;52.218;9.884;2022-11-15T09:02:06;12.00;99.90
16879;DHT22;8556;52.218;9.884;2022-11-15T09:04:33;12.30;99.90
16879;DHT22;8556;52.218;9.884;2022-11-15T09:06:59;12.60;99.90
16879;DHT22;8556;52.218;9.884;2022-11-15T09:09:26;13.90;99.90
16879;DHT22;8556;52.218;9.884;2022-11-15T09:11:54;13.80;99.90
16879;DHT22;8556;52.218;9.884;2022-11-15T09:14:21;13.30;99.90
16879;DHT22;8556;52.218;9.884;2022-11-15T09:16:48;12.90;99.90
16879;DHT22;8556;52.218;9.884;2022-11-15T09:19:15;12.60;99.90
16879;DHT22;8556;52.218;9.884;2022-11-15T09:21:41;12.40;99.90
16879;DHT22;8556;52.218;9.884;2022-11-15T09:24:08;12.50;99.90
16879;DHT22;8556;52.218;9.884;2022-11-15T09:26:35;12.70;99.90
16879;DHT22;8556;52.218;9.884;2022-11-15T09:29:03;13.00;99.90
16879;DHT22;8556;52.218;9.884;2022-11-15T09:31:30;12.90;99.90
16879;DHT22;8556;52.218;9.884;2022-11-15T09:33:57;12.80;99.90
16879;DHT22;8556;52.218;9.884;2022-11-15T09:36:24;12.90;99.90
16879;DHT22;8556;52.218;9.884;2022-11-15T09:38:50;13.20;99.90
16879;DHT22;8556;52.218;9.884;2022-11-15T09:41:34;13.00;99.90
16879;DHT22;8556;52.218;9.884;2022-11-15T09:44:18;13.20;99.90
16879;DHT22;8556;52.218;9.884;2022-11-15T09:46:55;13.40;99.90
16879;DHT22;8556;52.218;9.884;2022-11-15T09:49:26;13.50;99.90
16879;DHT22;8556;52.218;9.884;2022-11-15T09:51:55;13.50;99.90
16879;DHT22;8556;52.218;9.884;2022-11-15T09:54:28;13.60;99.90
16879;DHT22;8556;52.218;9.884;2022-11-15T09:56:56;13.70;99.90
16879;DHT22;8556;52.218;9.884;2022-11-15T09:59:42;14.10;99.90
16879;DHT22;8556;52.218;9.884;2022-11-15T10:02:27;14.20;99.90
16879;DHT22;8556;52.218;9.884;2022-11-15T10:04:58;14.30;99.90
16879;DHT22;8556;52.218;9.884;2022-11-15T10:07:28;14.30;99.90
16879;DHT22;8556;52.218;9.884;2022-11-15T10:10:02;14.80;99.90
16879;DHT22;8556;52.218;9.884;2022-11-15T10:12:31;14.70;1.00
16879;DHT22;8556;52.218;9.884;2022-11-15T10:15:02;14.90;1.00
16879;DHT22;8556;52.218;9.884;2022-11-15T10:18:07;14.90;1.00
16879;DHT22;8556;52.218;9.884;2022-11-15T10:20:41;14.80;1.00
16879;DHT22;8556;52.218;9.884;2022-11-15T10:23:13;14.80;1.00
16879;DHT22;8556;52.218;9.884;2022-11-15T10:25:40;15.20;1.00
16879;DHT22;8556;52.218;9.884;2022-11-15T10:28:14;15.40;99.90
16879;DHT22;8556;52.218;9.884;2022-11-15T10:30:45;15.60;99.90
16879;DHT22;8556;52.218;9.884;2022-11-15T10:33:30;15.70;1.00
16879;DHT22;8556;52.218;9.884;2022-11-15T10:36:19;15.60;1.00
16879;DHT22;8556;52.218;9.884;2022-11-15T10:38:53;15.30;1.00
16879;DHT22;8556;52.218;9.884;2022-11-15T10:41:23;15.20;1.00
16879;DHT22;8556;52.218;9.884;2022-11-15T10:44:12;14.90;1.00
16879;DHT22;8556;52.218;9.884;2022-11-15T10:46:46;14.70;1.00
16879;DHT22;8556;52.218;9.884;2022-11-15T10:49:17;14.50;1.00
16879;DHT22;8556;52.218;9.884;2022-11-15T10:51:49;14.40;1.00
16879;DHT22;8556;52.218;9.884;2022-11-15T10:54:20;14.50;1.00
16879;DHT22;8556;52.218;9.884;2022-11-15T10:56:50;14.60;1.00
16879;DHT22;8556;52.218;9.884;2022-11-15T10:59:26;14.60;1.00
16879;DHT22;8556;52.218;9.884;2022-11-15T11:01:54;14.60;27.90
16879;DHT22;8556;52.218;9.884;2022-11-15T11:04:21;14.70;1.00
16879;DHT22;8556;52.218;9.884;2022-11-15T11:06:50;14.60;1.00
16879;DHT22;8556;52.218;9.884;2022-11-15T11:09:27;14.50;1.00
16879;DHT22;8556;52.218;9.884;2022-11-15T11:11:55;14.50;1.00
16879;DHT22;8556;52.218;9.884;2022-11-15T11:14:24;14.50;1.00
16879;DHT22;8556;52.218;9.884;2022-11-15T11:16:57;14.30;1.00
16879;DHT22;8556;52.218;9.884;2022-11-15T11:22:21;14.40;1.00
16879;DHT22;8556;52.218;9.884;2022-11-15T11:24:56;14.50;1.00
16879;DHT22;8556;52.218;9.884;2022-11-15T11:27:36;14.40;1.00
16879;DHT22;8556;52.218;9.884;2022-11-15T11:30:13;14.50;1.00
16879;DHT22;8556;52.218;9.884;2022-11-15T11:33:03;14.50;1.00
16879;DHT22;8556;52.218;9.884;2022-11-15T11:35:36;14.40;1.00
16879;DHT22;8556;52.218;9.884;2022-11-15T11:38:17;14.40;1.00
16879;DHT22;8556;52.218;9.884;2022-11-15T11:40:59;14.40;1.00
16879;DHT22;8556;52.218;9.884;2022-11-15T11:43:34;14.30;1.00
16879;DHT22;8556;52.218;9.884;2022-11-15T11:46:19;14.30;1.00
16879;DHT22;8556;52.218;9.884;2022-11-15T11:48:52;14.30;1.00
16879;DHT22;8556;52.218;9.884;2022-11-15T11:51:25;14.40;1.00
16879;DHT22;8556;52.218;9.884;2022-11-15T11:53:56;14.40;1.00
16879;DHT22;8556;52.218;9.884;2022-11-15T11:56:27;14.50;1.00
16879;DHT22;8556;52.218;9.884;2022-11-15T11:58:59;14.30;1.00
16879;DHT22;8556;52.218;9.884;2022-11-15T12:01:29;14.30;1.00
16879;DHT22;8556;52.218;9.884;2022-11-15T12:04:05;14.30;1.00
16879;DHT22;8556;52.218;9.884;2022-11-15T12:06:39;14.30;1.00
16879;DHT22;8556;52.218;9.884;2022-11-15T12:09:14;14.20;1.00
16879;DHT22;8556;52.218;9.884;2022-11-15T12:11:50;14.30;1.00
16879;DHT22;8556;52.218;9.884;2022-11-15T12:14:25;14.30;1.00
16879;DHT22;8556;52.218;9.884;2022-11-15T12:16:54;14.20;99.90
16879;DHT22;8556;52.218;9.884;2022-11-15T12:19:22;14.10;99.90
16879;DHT22;8556;52.218;9.884;2022-11-15T12:21:54;14.10;1.00
16879;DHT22;8556;52.218;9.884;2022-11-15T12:24:25;14.20;1.00
16879;DHT22;8556;52.218;9.884;2022-11-15T12:26:59;14.10;1.00
16879;DHT22;8556;52.218;9.884;2022-11-15T12:29:31;14.10;99.90
16879;DHT22;8556;52.218;9.884;2022-11-15T12:32:00;14.10;1.00
16879;DHT22;8556;52.218;9.884;2022-11-15T12:34:37;14.10;1.00
16879;DHT22;8556;52.218;9.884;2022-11-15T12:37:33;14.00;1.00
16879;DHT22;8556;52.218;9.884;2022-11-15T12:40:16;14.00;1.00
16879;DHT22;8556;52.218;9.884;2022-11-15T12:42:58;14.20;1.00
16879;DHT22;8556;52.218;9.884;2022-11-15T12:45:27;14.30;99.90
16879;DHT22;8556;52.218;9.884;2022-11-15T12:48:21;14.30;99.90
16879;DHT22;8556;52.218;9.884;2022-11-15T12:50:57;14.30;99.90
16879;DHT22;8556;52.218;9.884;2022-11-15T12:53:29;14.30;1.00
16879;DHT22;8556;52.218;9.884;2022-11-15T12:56:22;14.20;1.00
16879;DHT22;8556;52.218;9.884;2022-11-15T12:58:52;14.30;68.40
16879;DHT22;8556;52.218;9.884;2022-11-15T13:01:57;14.40;1.00
16879;DHT22;8556;52.218;9.884;2022-11-15T13:04:27;14.50;1.00
16879;DHT22;8556;52.218;9.884;2022-11-15T13:06:57;14.60;1.00
16879;DHT22;8556;52.218;9.884;2022-11-15T13:09:50;14.60;6.80
16879;DHT22;8556;52.218;9.884;2022-11-15T13:12:48;14.60;1.00
16879;DHT22;8556;52.218;9.884;2022-11-15T13:15:34;14.80;99.90
16879;DHT22;8556;52.218;9.884;2022-11-15T13:18:26;14.90;1.00
16879;DHT22;8556;52.218;9.884;2022-11-15T13:20:53;15.00;1.00
16879;DHT22;8556;52.218;9.884;2022-11-15T13:23:22;14.80;1.00
16879;DHT22;8556;52.218;9.884;2022-11-15T13:25:58;14.60;99.90
16879;DHT22;8556;52.218;9.884;2022-11-15T13:28:32;14.50;99.90
16879;DHT22;8556;52.218;9.884;2022-11-15T13:31:02;14.60;1.00
16879;DHT22;8556;52.218;9.884;2022-11-15T13:33:32;14.60;99.90
16879;DHT22;8556;52.218;9.884;2022-11-15T13:36:02;14.60;99.90
16879;DHT22;8556;52.218;9.884;2022-11-15T13:38:32;14.60;99.90
16879;DHT22;8556;52.218;9.884;2022-11-15T13:41:10;14.70;1.00
16879;DHT22;8556;52.218;9.884;2022-11-15T13:43:37;14.70;1.00
16879;DHT22;8556;52.218;9.884;2022-11-15T13:46:11;14.80;99.90
16879;DHT22;8556;52.218;9.884;2022-11-15T13:48:39;14.70;1.00
16879;DHT22;8556;52.218;9.884;2022-11-15T13:51:10;14.80;99.90
16879;DHT22;8556;52.218;9.884;2022-11-15T13:53:45;14.80;1.00
16879;DHT22;8556;52.218;9.884;2022-11-15T13:56:14;14.80;99.90
16879;DHT22;8556;52.218;9.884;2022-11-15T13:58:41;14.70;1.00
16879;DHT22;8556;52.218;9.884;2022-11-15T14:01:14;14.70;1.00
16879;DHT22;8556;52.218;9.884;2022-11-15T14:03:50;14.60;1.00
16879;DHT22;8556;52.218;9.884;2022-11-15T14:06:20;14.70;1.00
16879;DHT22;8556;52.218;9.884;2022-11-15T14:09:18;14.60;1.00
16879;DHT22;8556;52.218;9.884;2022-11-15T14:11:53;14.50;1.00
16879;DHT22;8556;52.218;9.884;2022-11-15T14:14:21;14.50;1.00
16879;DHT22;8556;52.218;9.884;2022-11-15T14:16:50;14.50;1.70
16879;DHT22;8556;52.218;9.884;2022-11-15T14:19:39;14.50;1.00
16879;DHT22;8556;52.218;9.884;2022-11-15T14:22:15;14.60;1.00
16879;DHT22;8556;52.218;9.884;2022-11-15T14:24:45;14.70;99.90
16879;DHT22;8556;52.218;9.884;2022-11-15T14:27:23;14.70;1.00
16879;DHT22;8556;52.218;9.884;2022-11-15T14:29:50;14.60;1.00
16879;DHT22;8556;52.218;9.884;2022-11-15T14:32:20;14.60;1.00
16879;DHT22;8556;52.218;9.884;2022-11-15T14:34:48;14.60;1.00
16879;DHT22;8556;52.218;9.884;2022-11-15T14:37:20;14.50;1.00
16879;DHT22;8556;52.218;9.884;2022-11-15T14:39:49;14.30;1.00
16879;DHT22;8556;52.218;9.884;2022-11-15T14:42:17;14.40;1.00
16879;DHT22;8556;52.218;9.884;2022-11-15T14:44:44;14.20;99.90
16879;DHT22;8556;52.218;9.884;2022-11-15T14:47:11;14.30;99.90
16879;DHT22;8556;52.218;9.884;2022-11-15T14:49:38;14.10;99.90
16879;DHT22;8556;52.218;9.884;2022-11-15T14:52:11;14.20;1.00
16879;DHT22;8556;52.218;9.884;2022-11-15T14:54:42;14.10;1.00
16879;DHT22;8556;52.218;9.884;2022-11-15T14:57:11;14.30;1.00
16879;DHT22;8556;52.218;9.884;2022-11-15T14:59:37;14.20;1.00
16879;DHT22;8556;52.218;9.884;2022-11-15T15:02:10;14.30;1.00
16879;DHT22;8556;52.218;9.884;2022-11-15T15:04:41;14.20;99.90
16879;DHT22;8556;52.218;9.884;2022-11-15T15:07:08;14.10;1.00
16879;DHT22;8556;52.218;9.884;2022-11-15T15:09:35;14.00;99.90
16879;DHT22;8556;52.218;9.884;2022-11-15T15:12:01;14.00;1.00
16879;DHT22;8556;52.218;9.884;2022-11-15T15:14:30;13.90;99.90
16879;DHT22;8556;52.218;9.884;2022-11-15T15:16:57;14.00;1.00
16879;DHT22;8556;52.218;9.884;2022-11-15T15:19:23;13.90;1.00
16879;DHT22;8556;52.218;9.884;2022-11-15T15:21:50;13.90;99.90
16879;DHT22;8556;52.218;9.884;2022-11-15T15:24:17;13.80;99.90
16879;DHT22;8556;52.218;9.884;2022-11-15T15:26:44;13.70;99.90
16879;DHT22;8556;52.218;9.884;2022-11-15T15:29:10;13.80;99.70
16879;DHT22;8556;52.218;9.884;2022-11-15T15:31:39;13.80;99.90
16879;DHT22;8556;52.218;9.884;2022-11-15T15:34:05;13.80;70.80
16879;DHT22;8556;52.218;9.884;2022-11-15T15:36:32;14.00;1.00
16879;DHT22;8556;52.218;9.884;2022-11-15T15:38:59;13.70;99.90
16879;DHT22;8556;52.218;9.884;2022-11-15T15:41:26;13.60;99.90
16879;DHT22;8556;52.218;9.884;2022-11-15T15:43:53;13.60;1.00
16879;DHT22;8556;52.218;9.884;2022-11-15T15:46:20;13.60;99.90
16879;DHT22;8556;52.218;9.884;2022-11-15T15:48:48;13.60;99.90
16879;DHT22;8556;52.218;9.884;2022-11-15T15:51:15;13.50;1.00
16879;DHT22;8556;52.218;9.884;2022-11-15T15:53:42;13.40;1.00
16879;DHT22;8556;52.218;9.884;2022-11-15T15:56:08;13.40;1.00
16879;DHT22;8556;52.218;9.884;2022-11-15T15:58:35;13.20;1.00
16879;DHT22;8556;52.218;9.884;2022-11-15T16:01:02;13.20;1.00
16879;DHT22;8556;52.218;9.884;2022-11-15T16:03:29;13.20;1.00
16879;DHT22;8556;52.218;9.884;2022-11-15T16:05:58;13.10;99.90
16879;DHT22;8556;52.218;9.884;2022-11-15T16:08:25;12.70;99.90
16879;DHT22;8556;52.218;9.884;2022-11-15T16:10:53;12.30;99.90
16879;DHT22;8556;52.218;9.884;2022-11-15T16:13:19;12.10;99.90
16879;DHT22;8556;52.218;9.884;2022-11-15T16:15:49;12.00;99.90
16879;DHT22;8556;52.218;9.884;2022-11-15T16:18:18;12.00;99.90
16879;DHT22;8556;52.218;9.884;2022-11-15T16:20:46;11.90;99.90